74.1°F
Current conditions from King Hill
Updated every 5 minutes
 
  Sunday June 25, 2017

Observations for Westford

Westford

44° 37' 39"N, 73° 02' 29"W, Elevation 850 ft.
Eastern Time

Hourly observations for the last 72 hours

Date Time Temperature (°F) Humi-
dity

(%)
Wind
(mph)
Pressure Rain (in)
Air Dew 6 Hour 1 Hr 3 Hr 6 Hr Day
Alt
(in)
Sea
Level

(mb)
Max Min
25 13:00 74.2 59.9 61 SW 0 G 9 29.82 1010.0 0.00
25 12:00 72.8 58.6 61 W 0 G 8 29.85 1010.8 0.00
25 11:00 71.4 58.6 64 W 0 G 9 29.86 1011.2 0.00
25 10:00 69.3 59.5 71 WSW 1 G 6 29.86 1011.3 0.00
25 09:00 66.7 58.2 74 NW 0 G 9 29.86 1011.3 0.00
25 08:00 63.5 56.9 63.5 51.6 79 SSW 2 G 7 29.86 1011.1 0.00
25 07:00 55.9 55.1 97 WSW 0 G 2 29.85 1010.9 0.00
25 06:00 52.2 51.1 96 Calm 29.84 1010.4 0.00
25 05:00 52.2 50.5 94 Calm 29.82 1009.9 0.00
25 04:00 55.8 52.6 89 Calm 29.81 1009.4 0.00
25 03:00 56.2 52.7 88 SW 0 G 5 29.81 1009.5 0.00
25 02:00 55.6 53.0 69.4 55.3 91 SW 0 G 5 29.80 1009.1 0.00
25 01:00 56.0 53.1 90 Calm 29.78 1008.6 0.00
25 00:00 57.7 53.2 85 Calm 29.78 1008.5 0.72
24 23:00 61.9 54.3 76 NW 1 G 10 29.77 1008.2 0.72
24 22:00 63.4 55.3 75 NW 2 G 9 29.74 1007.3 0.72
24 21:00 65.8 54.5 67 W 2 G 9 29.70 1005.9 0.72
24 20:00 69.4 55.4 79.8 69.4 61 W 1 G 11 29.67 1004.7 0.72
24 19:00 71.7 53.7 53 W 7 G 18 29.64 1003.8 0.72
24 18:00 73.1 60.2 64 SSW 3 G 11 29.62 1002.9 0.72
24 17:00 73.3 60.4 64 WSW 1 G 13 29.60 1002.3 0.72
24 16:00 76.7 60.8 58 SSW 1 G 7 29.58 1001.8 0.72
24 15:00 77.8 63.8 62 WNW 0 G 8 29.58 1001.8 0.72
24 14:00 76.0 61.1 78.3 66.2 60 WNW 5 G 8 29.58 1001.8 0.72
24 13:00 75.3 63.6 67 W 3 G 10 29.57 1001.3 0.72
24 12:00 72.9 63.4 72 WNW 8 G 12 29.56 1001.0 0.72
24 11:00 70.5 66.4 87 NE 0 G 6 29.53 1000.0 0.72
24 10:00 67.4 65.6 94 WNW 4 G 7 29.51 999.5 0.72
24 09:00 66.9 66.0 97 NW 4 G 8 29.49 998.6 0.72
24 08:00 67.1 66.5 67.1 65.1 98 WNW 5 G 11 29.47 998.0 0.04 0.06 0.20 0.72
24 07:00 66.7 66.1 98 W 4 G 8 29.46 997.7 0.02 0.68
24 06:00 66.4 65.5 97 Calm 29.43 996.7 0.66
24 05:00 66.1 65.5 98 W 0 G 6 29.42 996.3 0.01 0.14 0.66
24 04:00 65.7 64.8 97 Calm 29.40 995.7 0.01 0.65
24 03:00 66.2 65.3 97 W 1 G 6 29.42 996.3 0.12 0.64
24 02:00 65.7 64.5 70.0 65.7 96 WNW 5 G 11 29.41 996.1 0.52 0.52 0.59 0.52
24 01:00 69.9 69.0 97 SW 3 G 8 29.41 996.0 0.00
24 00:00 69.8 68.9 97 SSW 4 G 8 29.43 996.7 1.00
23 23:00 69.7 68.8 97 SSW 0 G 8 29.44 997.2 0.02 0.07 1.00
23 22:00 69.5 68.3 96 SSW 1 G 7 29.47 998.0 0.05 0.98
23 21:00 69.2 68.0 96 SSW 0 G 9 29.45 997.5 0.93
23 20:00 69.3 67.8 79.1 69.2 95 SSW 0 G 5 29.46 997.7 0.07 0.07 0.93
23 19:00 69.7 67.9 94 SSW 1 G 7 29.46 997.6 0.07 0.93
23 18:00 73.7 69.3 86 SSW 3 G 8 29.47 997.9 0.86
23 17:00 75.6 71.8 88 SSE 0 G 7 29.48 998.3 0.86
23 16:00 75.3 70.8 86 SSW 1 G 7 29.51 999.3 0.86
23 15:00 78.5 71.8 80 SSW 7 G 13 29.53 999.9 0.86
23 14:00 74.4 71.9 74.4 62.5 92 Calm 29.55 1000.7 0.13 0.86
23 13:00 73.7 69.9 88 W 0 G 8 29.58 1001.6 0.86
23 12:00 73.5 69.4 87 SW 1 G 11 29.59 1002.1 0.86
23 11:00 70.0 68.2 94 S 2 G 10 29.63 1003.3 0.13 0.86
23 10:00 66.7 65.8 97 SSW 0 G 6 29.65 1004.1 0.02 0.86
23 09:00 63.4 62.5 97 S 0 G 10 29.67 1004.6 0.11 0.84
23 08:00 62.5 61.6 65.0 60.5 97 SSW 5 G 11 29.70 1005.7 0.11 0.25 0.73 0.73
23 07:00 62.1 61.2 97 S 2 G 9 29.68 1005.0 0.04 0.62
23 06:00 60.8 59.7 96 SSW 3 G 10 29.70 1005.7 0.10 0.58
23 05:00 60.5 59.4 96 SSW 1 G 3 29.70 1005.9 0.10 0.48 0.48
23 04:00 60.6 58.9 94 Calm 29.73 1006.7 0.34 0.38
23 03:00 63.4 59.5 87 Calm 29.73 1006.8 0.04 0.04
23 02:00 64.7 57.0 68.1 56.1 76 SSW 0 G 4 29.71 1006.2 0.00
23 01:00 63.8 56.8 78 SSW 1 G 7 29.75 1007.4 0.00
23 00:00 61.7 57.5 86 Calm 29.78 1008.6 0.01
22 23:00 57.1 54.8 92 Calm 29.78 1008.6 0.01
22 22:00 57.5 54.0 88 Calm 29.80 1009.2 0.01
22 21:00 60.6 56.1 85 Calm 29.80 1009.3 0.01
22 20:00 68.1 60.3 76.1 68.1 76 Calm 29.80 1009.3 0.01
22 19:00 70.1 61.4 74 Calm 29.82 1009.9 0.01
22 18:00 72.1 61.8 70 Calm 29.81 1009.4 0.01
22 17:00 73.5 59.2 61 W 0 G 1 29.81 1009.3 0.01
22 16:00 73.9 58.2 58 W 0 G 6 29.83 1010.1 0.01
22 15:00 75.3 57.5 54 W 2 G 10 29.85 1010.9 0.01
22 14:00 74.0 57.3 75.7 62.9 56 WNW 0 G 8 29.85 1010.9 0.01

Data generated by WxSolution Version 1.9.0.6, Build 2017.01.14.


 
 
Current Radar Loop:

Copyright © WestfordWeather.net 2007-2017. All rights reserved.